createdAt,value
2018-01-04T00:00:57.076Z,29.97
2018-01-04T00:03:28.372Z,22.93
2018-01-04T00:06:00.467Z,28.17
2018-01-04T00:08:31.218Z,31.00
2018-01-04T00:11:02.555Z,19.50
2018-01-04T00:13:33.557Z,25.43
2018-01-04T00:16:04.668Z,23.40
2018-01-04T00:18:36.972Z,28.23
2018-01-04T00:21:09.282Z,19.23
2018-01-04T00:23:41.268Z,27.97
2018-01-04T00:26:13.728Z,25.57
2018-01-04T00:28:44.427Z,22.80
2018-01-04T00:31:15.209Z,25.07
2018-01-04T00:33:46.527Z,28.63
2018-01-04T00:36:17.283Z,26.20
2018-01-04T00:38:48.844Z,28.30
2018-01-04T00:41:21.040Z,25.43
2018-01-04T00:43:52.498Z,30.50
2018-01-04T00:46:25.364Z,24.50
2018-01-04T00:48:56.295Z,22.97
2018-01-04T00:51:27.871Z,29.97
2018-01-04T00:53:59.279Z,25.07
2018-01-04T00:56:30.854Z,23.23
2018-01-04T00:59:01.852Z,28.20
2018-01-04T01:01:34.470Z,21.37
2018-01-04T01:04:06.013Z,31.43
2018-01-04T01:06:36.839Z,29.73
2018-01-04T01:09:08.398Z,36.60
2018-01-04T01:11:39.449Z,30.43
2018-01-04T01:14:11.512Z,27.03
2018-01-04T01:16:42.295Z,30.50
2018-01-04T01:19:13.054Z,35.03
2018-01-04T01:21:44.592Z,37.40
2018-01-04T01:24:15.797Z,28.60
2018-01-04T01:26:46.597Z,32.37
2018-01-04T01:29:17.687Z,34.23
2018-01-04T01:31:48.528Z,32.63
2018-01-04T01:34:19.417Z,34.33
2018-01-04T01:36:50.227Z,27.60
2018-01-04T01:39:21.208Z,31.33
2018-01-04T01:41:52.868Z,30.97
2018-01-04T01:44:23.551Z,29.87
2018-01-04T01:46:54.787Z,29.77
2018-01-04T01:49:25.512Z,33.87
2018-01-04T01:51:56.529Z,33.17
2018-01-04T01:54:27.536Z,32.57
2018-01-04T01:56:58.239Z,22.47
2018-01-04T01:59:28.928Z,24.20
2018-01-04T02:02:00.053Z,26.53
2018-01-04T02:04:30.944Z,20.67
2018-01-04T02:07:01.760Z,22.50
2018-01-04T02:09:33.458Z,18.30
2018-01-04T02:12:04.187Z,23.37
2018-01-04T02:14:36.056Z,17.97
2018-01-04T02:17:07.670Z,17.17
2018-01-04T02:22:49.635Z,18.23
2018-01-04T02:25:56.995Z,19.97
2018-01-04T02:29:03.474Z,23.83
2018-01-04T02:33:48.284Z,8.70
2018-01-04T02:38:30.946Z,6.53
2018-01-04T02:41:01.970Z,5.93
2018-01-04T02:44:03.818Z,11.17
2018-01-04T02:46:36.172Z,7.97
2018-01-04T02:49:06.772Z,6.73
2018-01-04T02:51:37.723Z,11.73
2018-01-04T02:54:08.916Z,8.13
2018-01-04T02:56:40.624Z,5.57
2018-01-04T02:59:11.555Z,9.93
2018-01-04T03:01:41.954Z,8.73
2018-01-04T03:04:13.335Z,10.30
2018-01-04T03:06:44.323Z,11.70
2018-01-04T03:09:15.909Z,10.60
2018-01-04T03:11:47.018Z,9.27
2018-01-04T03:14:19.501Z,14.07
2018-01-04T03:16:51.035Z,10.13
2018-01-04T03:19:21.487Z,12.33
2018-01-04T03:21:55.940Z,15.33
2018-01-04T03:24:30.791Z,13.50
2018-01-04T03:29:08.224Z,11.63
2018-01-04T03:31:43.631Z,17.90
2018-01-04T03:36:20.183Z,19.67
2018-01-04T03:39:26.867Z,15.10
2018-01-04T03:44:06.359Z,23.50
2018-01-04T03:48:43.679Z,17.97
2018-01-04T03:53:21.435Z,17.33
2018-01-04T03:57:59.548Z,17.20
2018-01-04T04:00:34.012Z,19.00
2018-01-04T04:03:05.300Z,15.70
2018-01-04T04:05:40.303Z,16.13
2018-01-04T04:08:14.801Z,14.73
2018-01-04T04:10:46.075Z,26.93
2018-01-04T04:13:16.896Z,23.63
2018-01-04T04:15:47.604Z,29.07
2018-01-04T04:18:18.114Z,29.73
2018-01-04T04:20:48.621Z,27.03
2018-01-04T04:23:19.180Z,23.87
2018-01-04T04:25:50.076Z,30.10
2018-01-04T04:28:20.851Z,28.43
2018-01-04T04:30:51.260Z,22.37
2018-01-04T04:33:22.236Z,35.53
2018-01-04T04:35:52.675Z,25.37
2018-01-04T04:38:23.751Z,19.23
2018-01-04T04:40:54.585Z,25.43
2018-01-04T04:43:25.208Z,28.00
2018-01-04T04:45:55.828Z,26.83
2018-01-04T04:48:29.230Z,29.07
2018-01-04T04:51:00.001Z,22.57
2018-01-04T04:53:31.096Z,21.17
2018-01-04T04:56:01.630Z,33.50
2018-01-04T04:58:32.048Z,26.10
2018-01-04T05:01:02.586Z,28.73
2018-01-04T05:03:34.546Z,29.43
2018-01-04T05:06:07.009Z,22.00
2018-01-04T05:08:39.437Z,24.87
2018-01-04T05:11:10.661Z,19.83
2018-01-04T05:13:41.475Z,16.27
2018-01-04T05:16:11.948Z,15.03
2018-01-04T05:18:42.806Z,13.13
2018-01-04T05:21:15.251Z,21.70
2018-01-04T05:23:45.801Z,24.87
2018-01-04T05:26:16.603Z,14.17
2018-01-04T05:28:47.568Z,23.70
2018-01-04T05:31:18.128Z,23.43
2018-01-04T05:33:49.430Z,19.27
2018-01-04T05:36:22.084Z,22.57
2018-01-04T05:38:52.879Z,26.73
2018-01-04T05:41:23.515Z,21.43
2018-01-04T05:43:54.308Z,15.63
2018-01-04T05:46:24.777Z,15.73
2018-01-04T05:48:56.032Z,16.87
2018-01-04T05:51:26.640Z,17.10
2018-01-04T05:53:58.672Z,15.67
2018-01-04T05:56:29.507Z,19.13
2018-01-04T05:59:00.036Z,18.33
2018-01-04T06:01:30.673Z,15.17
2018-01-04T06:04:02.467Z,14.60
2018-01-04T06:06:33.350Z,18.17
2018-01-04T06:09:04.095Z,14.57
2018-01-04T06:11:34.564Z,14.00
2018-01-04T06:14:05.171Z,16.47
2018-01-04T06:16:36.796Z,20.87
2018-01-04T06:19:07.250Z,12.80
2018-01-04T06:21:38.487Z,17.53
2018-01-04T06:24:11.610Z,12.57
2018-01-04T06:26:43.114Z,16.23
2018-01-04T06:29:13.891Z,11.47
2018-01-04T06:31:45.061Z,13.47
2018-01-04T06:34:15.809Z,14.97
2018-01-04T06:36:46.379Z,12.57
2018-01-04T06:39:18.439Z,13.43
2018-01-04T06:41:49.775Z,20.73
2018-01-04T06:44:20.643Z,14.03
2018-01-04T06:46:51.371Z,16.17
2018-01-04T06:49:22.011Z,14.20
2018-01-04T06:51:52.760Z,19.70
2018-01-04T06:54:23.346Z,23.47
2018-01-04T06:56:54.529Z,19.03
2018-01-04T06:59:25.835Z,17.00
2018-01-04T07:01:57.228Z,18.03
2018-01-04T07:04:28.473Z,15.20
2018-01-04T07:07:02.389Z,15.43
2018-01-04T07:09:32.804Z,12.83
2018-01-04T07:12:03.416Z,15.07
2018-01-04T07:14:35.833Z,12.43
2018-01-04T07:17:06.296Z,16.40
2018-01-04T07:19:37.462Z,16.57
2018-01-04T07:22:09.343Z,12.53
2018-01-04T07:24:42.345Z,9.93
2018-01-04T07:27:15.064Z,12.97
2018-01-04T07:29:50.703Z,17.37
2018-01-04T07:32:23.921Z,18.97
2018-01-04T07:34:54.911Z,24.87
2018-01-04T07:37:25.244Z,22.10
2018-01-04T07:39:55.770Z,22.10
2018-01-04T07:42:29.281Z,21.57
2018-01-04T07:45:00.000Z,24.67
2018-01-04T07:47:30.623Z,15.30
2018-01-04T07:50:02.153Z,17.60
2018-01-04T07:52:33.003Z,14.77
2018-01-04T07:55:03.827Z,13.23
2018-01-04T07:57:36.857Z,21.40
2018-01-04T08:00:07.604Z,13.37
2018-01-04T08:02:38.345Z,14.27
2018-01-04T08:05:09.187Z,13.63
2018-01-04T08:07:40.326Z,18.20
2018-01-04T08:10:11.826Z,18.73
2018-01-04T08:12:43.523Z,18.33
2018-01-04T08:15:15.595Z,19.47
2018-01-04T08:17:46.712Z,21.30
2018-01-04T08:20:18.633Z,21.90
2018-01-04T08:22:49.829Z,23.23
2018-01-04T08:25:20.551Z,31.30
2018-01-04T08:27:51.656Z,27.57
2018-01-04T08:30:23.767Z,19.90
2018-01-04T08:32:55.298Z,28.23
2018-01-04T08:35:27.783Z,24.70
2018-01-04T08:37:58.565Z,20.57
2018-01-04T08:40:30.526Z,24.43
2018-01-04T08:43:03.874Z,26.43
2018-01-04T08:45:34.563Z,18.13
2018-01-04T08:48:05.276Z,20.73
2018-01-04T08:50:37.120Z,18.73
2018-01-04T08:53:07.949Z,19.23
2018-01-04T08:55:39.499Z,19.50
2018-01-04T08:58:10.468Z,16.87
2018-01-04T09:00:41.407Z,15.10
2018-01-04T09:03:13.397Z,15.57
2018-01-04T09:06:02.728Z,13.47
2018-01-04T09:08:33.942Z,11.03
2018-01-04T09:11:05.412Z,12.50
2018-01-04T09:13:37.960Z,13.90
2018-01-04T09:16:10.715Z,10.60
2018-01-04T09:18:42.939Z,11.23
2018-01-04T09:21:13.959Z,9.03
2018-01-04T09:23:44.788Z,13.40
2018-01-04T09:26:16.503Z,6.43
2018-01-04T09:29:37.502Z,10.13
2018-01-04T09:32:08.884Z,10.43
2018-01-04T09:34:40.159Z,11.53
2018-01-04T09:37:11.201Z,8.63
2018-01-04T09:39:44.164Z,7.27
2018-01-04T09:42:15.070Z,13.33
2018-01-04T09:44:45.819Z,14.63
2018-01-04T09:47:18.084Z,14.07
2018-01-04T09:49:48.990Z,11.37
2018-01-04T09:52:19.838Z,18.13
2018-01-04T09:54:50.614Z,12.97
2018-01-04T09:57:21.552Z,13.33
2018-01-04T09:59:54.136Z,11.93
2018-01-04T10:02:24.984Z,15.70
2018-01-04T10:04:57.047Z,17.77
2018-01-04T10:07:27.784Z,18.13
2018-01-04T10:09:59.418Z,17.53
2018-01-04T10:12:30.476Z,19.97
2018-01-04T10:15:02.102Z,24.17
2018-01-04T10:17:33.141Z,21.80
2018-01-04T10:20:05.068Z,26.93
2018-01-04T10:22:35.864Z,29.00
2018-01-04T10:25:07.069Z,32.00
2018-01-04T10:27:37.824Z,33.17
2018-01-04T10:30:08.797Z,33.43
2018-01-04T10:32:39.917Z,24.57
2018-01-04T10:35:11.617Z,34.70
2018-01-04T10:37:42.283Z,30.23
2018-01-04T10:40:13.071Z,38.90
2018-01-04T10:42:44.144Z,35.73
2018-01-04T10:45:14.917Z,33.30
2018-01-04T10:47:45.627Z,31.17
2018-01-04T10:50:16.414Z,36.20
2018-01-04T10:52:47.921Z,42.43
2018-01-04T10:55:18.679Z,36.37
2018-01-04T10:57:49.733Z,38.40
2018-01-04T11:00:22.460Z,37.50
2018-01-04T11:02:55.414Z,33.67
2018-01-04T11:05:27.073Z,37.77
2018-01-04T11:07:57.856Z,39.67
2018-01-04T11:10:28.645Z,31.13
2018-01-04T11:12:59.803Z,32.40
2018-01-04T11:15:30.892Z,24.23
2018-01-04T11:18:02.470Z,24.13
2018-01-04T11:20:33.360Z,29.50
2018-01-04T11:23:04.202Z,30.40
2018-01-04T11:25:35.186Z,36.03
2018-01-04T11:28:07.037Z,35.33
2018-01-04T11:30:37.719Z,41.83
2018-01-04T11:33:09.262Z,35.90
2018-01-04T11:35:40.139Z,40.87
2018-01-04T11:38:12.157Z,25.33
2018-01-04T11:40:49.092Z,25.07
2018-01-04T11:43:27.652Z,23.03
2018-01-04T11:46:00.128Z,23.50
2018-01-04T11:48:31.804Z,20.90
2018-01-04T11:51:03.025Z,23.70
2018-01-04T11:53:34.716Z,29.53
2018-01-04T11:56:05.536Z,24.23
2018-01-04T11:58:37.156Z,24.50
2018-01-04T12:01:07.962Z,36.10
2018-01-04T12:03:41.164Z,30.23
2018-01-04T12:06:13.332Z,44.47
2018-01-04T12:08:44.157Z,41.93
2018-01-04T12:11:14.852Z,43.83
2018-01-04T12:13:46.783Z,45.23
2018-01-04T12:16:17.859Z,43.80
2018-01-04T12:18:48.924Z,39.10
2018-01-04T12:21:19.964Z,38.73
2018-01-04T12:23:51.568Z,42.70
2018-01-04T12:26:22.300Z,47.13
2018-01-04T12:28:53.428Z,47.93
2018-01-04T12:31:24.163Z,41.93
2018-01-04T12:33:54.920Z,49.00
2018-01-04T12:36:25.660Z,53.97
2018-01-04T12:38:56.941Z,45.20
2018-01-04T12:41:27.600Z,42.93
2018-01-04T12:43:58.411Z,50.13
2018-01-04T12:46:29.518Z,45.90
2018-01-04T12:49:00.339Z,46.67
2018-01-04T12:51:31.087Z,42.90
2018-01-04T12:54:01.915Z,51.43
2018-01-04T12:56:33.630Z,36.10
2018-01-04T12:59:04.529Z,54.47
2018-01-04T13:01:36.469Z,59.67
2018-01-04T13:04:07.352Z,53.90
2018-01-04T13:06:38.181Z,46.13
2018-01-04T13:09:09.350Z,47.87
2018-01-04T13:11:40.016Z,46.50
2018-01-04T13:14:10.944Z,47.77
2018-01-04T13:16:41.717Z,50.50
2018-01-04T13:19:12.852Z,56.60
2018-01-04T13:21:44.432Z,50.87
2018-01-04T13:24:15.189Z,50.73
2018-01-04T13:26:46.086Z,46.90
2018-01-04T13:29:16.973Z,42.20
2018-01-04T13:31:47.737Z,48.67
2018-01-04T13:34:18.710Z,45.57
2018-01-04T13:36:49.469Z,36.07
2018-01-04T13:39:20.158Z,42.10
2018-01-04T13:41:52.128Z,40.37
2018-01-04T13:44:23.268Z,50.93
2018-01-04T13:46:54.132Z,46.87
2018-01-04T13:49:24.930Z,49.90
2018-01-04T13:51:56.378Z,47.23
2018-01-04T13:54:27.300Z,37.77
2018-01-04T13:56:57.991Z,44.23
2018-01-04T13:59:29.242Z,52.23
2018-01-04T14:02:00.155Z,35.40
2018-01-04T14:04:31.196Z,40.73
2018-01-04T14:07:02.210Z,38.63
2018-01-04T14:09:33.882Z,42.27
2018-01-04T14:12:04.661Z,48.27
2018-01-04T14:14:35.628Z,43.20
2018-01-04T14:17:06.768Z,41.87
2018-01-04T14:19:38.317Z,50.27
2018-01-04T14:22:09.133Z,41.27
2018-01-04T14:24:40.052Z,37.07
2018-01-04T14:27:11.008Z,40.23
2018-01-04T14:29:42.595Z,43.27
2018-01-04T14:32:13.512Z,38.47
2018-01-04T14:34:44.242Z,44.97
2018-01-04T14:37:15.749Z,46.80
2018-01-04T14:39:46.735Z,39.43
2018-01-04T14:42:17.706Z,46.10
2018-01-04T14:44:48.432Z,42.93
2018-01-04T14:47:20.393Z,58.30
2018-01-04T14:49:51.245Z,42.97
2018-01-04T14:52:22.125Z,46.83
2018-01-04T14:54:53.694Z,47.30
2018-01-04T14:57:24.865Z,50.80
2018-01-04T14:59:55.716Z,58.23
2018-01-04T15:02:26.642Z,59.60
2018-01-04T15:04:57.873Z,52.73
2018-01-04T15:07:29.468Z,54.13
2018-01-04T15:10:00.247Z,50.80
2018-01-04T15:12:30.992Z,51.00
2018-01-04T15:15:03.135Z,51.87
2018-01-04T15:17:34.040Z,57.43
2018-01-04T15:20:05.131Z,51.70
2018-01-04T15:22:36.100Z,51.23
2018-01-04T15:25:07.304Z,50.33
2018-01-04T15:27:40.343Z,60.00
2018-01-04T15:30:11.139Z,67.43
2018-01-04T15:32:43.244Z,61.30
2018-01-04T15:35:14.093Z,50.97
2018-01-04T15:37:44.967Z,64.00
2018-01-04T15:40:15.806Z,49.57
2018-01-04T15:42:47.304Z,58.73
2018-01-04T15:45:20.545Z,54.73
2018-01-04T15:47:52.370Z,61.00
2018-01-04T15:50:23.559Z,69.67
2018-01-04T15:52:54.556Z,76.20
2018-01-04T15:55:26.384Z,78.43
2018-01-04T15:57:58.033Z,63.63
2018-01-04T16:00:29.863Z,65.87
2018-01-04T16:03:00.732Z,66.40
2018-01-04T16:05:31.810Z,67.40
2018-01-04T16:08:03.825Z,67.83
2018-01-04T16:10:34.603Z,73.33
2018-01-04T16:13:05.473Z,77.77
2018-01-04T16:15:36.865Z,74.73
2018-01-04T16:18:07.768Z,75.67
2018-01-04T16:20:41.983Z,89.60
2018-01-04T16:23:23.253Z,74.20
2018-01-04T16:25:56.119Z,94.20
2018-01-04T16:28:27.126Z,90.23
2018-01-04T16:30:58.045Z,98.40
2018-01-04T16:33:30.420Z,106.23
2018-01-04T16:36:03.062Z,91.60
2018-01-04T16:38:35.064Z,102.43
2018-01-04T16:41:06.651Z,99.37
2018-01-04T16:43:38.211Z,82.03
2018-01-04T16:46:10.330Z,85.37
2018-01-04T16:48:41.398Z,126.47
2018-01-04T16:51:12.800Z,92.23
2018-01-04T16:53:44.015Z,89.23
2018-01-04T16:56:15.181Z,90.70
2018-01-04T16:58:47.191Z,91.20
2018-01-04T17:01:18.212Z,83.97
2018-01-04T17:03:50.133Z,92.77
2018-01-04T17:06:21.690Z,88.30
2018-01-04T17:08:52.894Z,83.47
2018-01-04T17:11:24.161Z,80.33
2018-01-04T17:13:55.950Z,85.50
2018-01-04T17:16:27.104Z,98.03
2018-01-04T17:18:58.605Z,78.60
2018-01-04T17:21:29.891Z,92.03
2018-01-04T17:24:00.863Z,94.30
2018-01-04T17:26:32.138Z,84.90
2018-01-04T17:29:03.235Z,94.50
2018-01-04T17:31:34.231Z,91.50
2018-01-04T17:34:05.435Z,88.17
2018-01-04T17:36:36.635Z,86.47
2018-01-04T17:39:08.321Z,80.37
2018-01-04T17:41:39.336Z,81.37
2018-01-04T17:44:10.564Z,90.60
2018-01-04T17:46:42.062Z,82.77
2018-01-04T17:49:13.861Z,80.67
2018-01-04T17:51:45.121Z,80.50
2018-01-04T17:54:17.254Z,71.80
2018-01-04T17:56:48.692Z,74.30
2018-01-04T17:59:20.433Z,74.83
2018-01-04T18:01:53.313Z,85.93
2018-01-04T18:04:26.156Z,78.70
2018-01-04T18:06:58.694Z,86.87
2018-01-04T18:09:31.329Z,81.87
2018-01-04T18:12:04.135Z,99.00
2018-01-04T18:14:36.037Z,91.83
2018-01-04T18:17:07.718Z,75.93
2018-01-04T18:19:39.984Z,73.07
2018-01-04T18:22:13.735Z,100.67
2018-01-04T18:24:46.580Z,77.97
2018-01-04T18:27:19.456Z,77.67
2018-01-04T18:29:51.166Z,70.97
2018-01-04T18:32:22.644Z,94.50
2018-01-04T18:34:55.090Z,68.43
2018-01-04T18:37:27.252Z,64.50
2018-01-04T18:40:01.037Z,72.80
2018-01-04T18:42:34.284Z,86.53
2018-01-04T18:45:06.600Z,85.50
2018-01-04T18:47:38.165Z,73.77
2018-01-04T18:50:09.633Z,62.30
2018-01-04T18:52:41.159Z,69.70
2018-01-04T18:55:12.632Z,79.10
2018-01-04T18:57:44.429Z,58.30
2018-01-04T19:00:16.009Z,67.30
2018-01-04T19:02:48.513Z,62.73
2018-01-04T19:05:19.974Z,63.97
2018-01-04T19:07:51.741Z,61.77
2018-01-04T19:10:23.649Z,65.27
2018-01-04T19:12:54.860Z,74.27
2018-01-04T19:15:25.989Z,61.73
2018-01-04T19:17:57.154Z,75.00
2018-01-04T19:20:29.216Z,72.90
2018-01-04T19:23:00.723Z,89.10
2018-01-04T19:25:32.466Z,72.53
2018-01-04T19:28:03.697Z,64.40
2018-01-04T19:30:35.114Z,84.60
2018-01-04T19:33:06.788Z,65.50
2018-01-04T19:35:39.010Z,72.33
2018-01-04T19:38:10.753Z,75.10
2018-01-04T19:40:43.294Z,73.60
2018-01-04T19:43:15.236Z,70.07
2018-01-04T19:45:47.417Z,62.73
2018-01-04T19:48:20.219Z,75.37
2018-01-04T19:50:52.579Z,54.20
2018-01-04T19:53:24.937Z,55.60
2018-01-04T19:55:57.365Z,158.93
2018-01-04T19:58:29.302Z,56.07
2018-01-04T20:01:01.413Z,58.37
2018-01-04T20:03:33.523Z,58.60
2018-01-04T20:06:05.406Z,44.40
2018-01-04T20:08:37.285Z,53.30
2018-01-04T20:11:09.130Z,52.67
2018-01-04T20:13:41.531Z,44.67
2018-01-04T20:16:13.478Z,43.10
2018-01-04T20:18:45.142Z,49.83
2018-01-04T20:21:16.888Z,54.93
2018-01-04T20:23:48.523Z,51.30
2018-01-04T20:26:20.405Z,48.87
2018-01-04T20:28:52.183Z,51.43
2018-01-04T20:31:25.661Z,56.20
2018-01-04T20:34:00.838Z,58.67
2018-01-04T20:36:32.252Z,55.83
2018-01-04T20:39:06.823Z,61.77
2018-01-04T20:41:40.056Z,59.83
2018-01-04T20:44:11.621Z,50.13
2018-01-04T20:46:43.931Z,60.20
2018-01-04T20:49:16.920Z,48.93
2018-01-04T20:51:48.452Z,51.17
2018-01-04T20:54:20.358Z,56.70
2018-01-04T20:56:53.612Z,52.43
2018-01-04T20:59:25.217Z,50.23
2018-01-04T21:01:57.042Z,58.50
2018-01-04T21:04:28.407Z,71.63
2018-01-04T21:06:59.771Z,59.97
2018-01-04T21:09:31.872Z,66.17
2018-01-04T21:12:04.902Z,61.07
2018-01-04T21:14:36.724Z,62.07
2018-01-04T21:17:08.060Z,62.17
2018-01-04T21:19:39.354Z,68.93
2018-01-04T21:22:10.719Z,67.23
2018-01-04T21:24:42.534Z,55.67
2018-01-04T21:27:14.847Z,49.07
2018-01-04T21:29:46.578Z,58.07
2018-01-04T21:32:18.339Z,64.00
2018-01-04T21:34:51.316Z,60.87
2018-01-04T21:37:23.874Z,68.40
2018-01-04T21:39:57.043Z,58.17
2018-01-04T21:42:28.657Z,46.47
2018-01-04T21:45:01.105Z,55.53
2018-01-04T21:47:33.609Z,38.93
2018-01-04T21:50:05.913Z,42.20
2018-01-04T21:52:38.560Z,48.10
2018-01-04T21:55:11.194Z,37.87
2018-01-04T21:57:42.700Z,35.87
2018-01-04T22:00:14.400Z,39.03
2018-01-04T22:02:45.992Z,37.13
2018-01-04T22:05:18.368Z,49.70
2018-01-04T22:07:52.817Z,39.63
2018-01-04T22:10:25.004Z,41.70
2018-01-04T22:12:56.533Z,42.60
2018-01-04T22:15:27.891Z,33.07
2018-01-04T22:17:59.551Z,36.83
2018-01-04T22:20:32.124Z,38.63
2018-01-04T22:23:03.485Z,44.20
2018-01-04T22:25:35.321Z,52.90
2018-01-04T22:28:07.130Z,46.70
2018-01-04T22:30:39.416Z,52.77
2018-01-04T22:33:12.247Z,44.43
2018-01-04T22:35:43.808Z,53.53
2018-01-04T22:38:15.208Z,46.47
2018-01-04T22:40:46.901Z,47.83
2018-01-04T22:43:18.796Z,48.60
2018-01-04T22:45:50.308Z,49.83
2018-01-04T22:48:22.005Z,52.83
2018-01-04T22:50:54.202Z,50.60
2018-01-04T22:53:25.548Z,56.00
2018-01-04T22:55:57.322Z,56.57
2018-01-04T22:58:28.692Z,53.63
2018-01-04T23:01:00.349Z,64.90
2018-01-04T23:03:32.887Z,59.40
2018-01-04T23:06:05.667Z,53.40
2018-01-04T23:08:37.080Z,60.20
2018-01-04T23:11:08.785Z,54.63
2018-01-04T23:13:40.173Z,55.77
2018-01-04T23:16:12.060Z,56.17
2018-01-04T23:18:43.534Z,52.13
2018-01-04T23:21:15.244Z,49.40
2018-01-04T23:23:46.690Z,56.73
2018-01-04T23:26:18.258Z,43.97
2018-01-04T23:28:49.943Z,45.53
2018-01-04T23:31:21.754Z,43.60
2018-01-04T23:33:54.143Z,39.17
2018-01-04T23:36:26.195Z,32.23
2018-01-04T23:38:57.628Z,30.70
2018-01-04T23:41:29.690Z,35.50
2018-01-04T23:44:01.190Z,24.50
2018-01-04T23:46:33.290Z,29.73
2018-01-04T23:49:04.610Z,28.77
2018-01-04T23:51:36.152Z,21.47
2018-01-04T23:54:08.271Z,24.40
2018-01-04T23:56:39.458Z,16.73
2018-01-04T23:59:12.445Z,17.90
